createdAt,value
2022-08-10T00:01:57.453Z,25.20
2022-08-10T00:04:05.501Z,25.20
2022-08-10T00:06:12.890Z,25.20
2022-08-10T00:08:22.529Z,25.20
2022-08-10T00:10:33.195Z,25.30
2022-08-10T00:12:54.383Z,25.30
2022-08-10T00:15:02.402Z,25.30
2022-08-10T00:17:09.892Z,25.40
2022-08-10T00:19:18.092Z,25.40
2022-08-10T00:21:27.341Z,25.40
2022-08-10T00:23:37.628Z,25.50
2022-08-10T00:25:46.805Z,25.50
2022-08-10T00:28:02.596Z,25.50
2022-08-10T00:30:12.280Z,25.60
2022-08-10T00:32:19.358Z,25.60
2022-08-10T00:34:26.962Z,25.60
2022-08-10T00:36:34.127Z,25.60
2022-08-10T00:38:41.359Z,25.60
2022-08-10T00:40:50.386Z,25.60
2022-08-10T00:42:57.369Z,25.60
2022-08-10T00:45:04.798Z,25.60
2022-08-10T00:47:21.403Z,25.70
2022-08-10T00:49:41.135Z,25.70
2022-08-10T00:51:49.383Z,25.70
2022-08-10T00:53:56.669Z,25.70
2022-08-10T00:57:09.896Z,25.70
2022-08-10T00:58:33.004Z,25.70
2022-08-10T01:00:40.742Z,25.70
2022-08-10T01:02:48.092Z,25.80
2022-08-10T01:04:59.241Z,25.80
2022-08-10T01:07:22.563Z,25.90
2022-08-10T01:09:38.505Z,25.90
2022-08-10T01:12:38.562Z,25.90
2022-08-10T01:14:30.962Z,26.00
2022-08-10T01:16:40.800Z,26.10
2022-08-10T01:18:54.229Z,26.10
2022-08-10T01:21:24.712Z,26.20
2022-08-10T01:24:06.810Z,26.20
2022-08-10T01:26:40.938Z,26.30
2022-08-10T01:29:00.189Z,26.30
2022-08-10T01:31:11.929Z,26.30
2022-08-10T01:33:31.749Z,26.40
2022-08-10T01:35:44.677Z,26.40
2022-08-10T01:37:59.527Z,26.40
2022-08-10T01:40:11.010Z,26.40
2022-08-10T01:42:23.549Z,26.40
2022-08-10T01:44:37.207Z,26.40
2022-08-10T01:46:56.717Z,26.50
2022-08-10T01:49:04.678Z,26.50
2022-08-10T01:51:21.998Z,26.50
2022-08-10T01:53:41.186Z,26.50
2022-08-10T01:55:51.036Z,26.60
2022-08-10T01:57:59.981Z,26.60
2022-08-10T02:00:08.488Z,26.70
2022-08-10T02:02:20.537Z,26.80
2022-08-10T02:04:30.326Z,26.90
2022-08-10T02:06:41.550Z,27.00
2022-08-10T02:08:57.074Z,27.00
2022-08-10T02:11:15.523Z,27.00
2022-08-10T02:13:24.141Z,27.00
2022-08-10T02:15:36.037Z,27.00
2022-08-10T02:17:58.183Z,27.00
2022-08-10T02:20:11.698Z,27.00
2022-08-10T02:22:36.195Z,27.00
2022-08-10T02:24:47.359Z,27.00
2022-08-10T02:26:56.560Z,27.00
2022-08-10T02:29:07.657Z,27.00
2022-08-10T02:31:18.278Z,27.00
2022-08-10T02:33:33.239Z,27.00
2022-08-10T02:35:55.176Z,27.00
2022-08-10T02:38:08.282Z,27.10
2022-08-10T02:45:13.194Z,27.10
2022-08-10T02:45:20.986Z,27.20
2022-08-10T02:45:30.921Z,27.20
2022-08-10T02:47:51.432Z,27.20
2022-08-10T02:50:10.775Z,27.30
2022-08-10T02:52:25.429Z,27.40
2022-08-10T02:54:39.061Z,27.50
2022-08-10T02:56:54.848Z,27.50
2022-08-10T02:59:06.991Z,27.60
2022-08-10T03:01:19.518Z,27.80
2022-08-10T03:03:29.288Z,28.00
2022-08-10T03:05:38.985Z,28.10
2022-08-10T03:07:52.310Z,28.20
2022-08-10T03:10:00.314Z,28.40
2022-08-10T03:12:35.426Z,28.40
2022-08-10T03:14:39.358Z,28.50
2022-08-10T03:16:47.607Z,28.50
2022-08-10T03:18:56.168Z,28.50
2022-08-10T03:21:08.773Z,28.60
2022-08-10T03:23:22.716Z,28.50
2022-08-10T03:25:31.692Z,28.50
2022-08-10T03:27:39.492Z,28.60
2022-08-10T03:30:29.512Z,28.70
2022-08-10T03:32:15.869Z,28.60
2022-08-10T03:34:33.650Z,28.70
2022-08-10T03:36:45.105Z,28.70
2022-08-10T03:38:54.360Z,28.80
2022-08-10T03:41:05.126Z,29.00
2022-08-10T03:43:17.068Z,29.10
2022-08-10T03:45:25.326Z,29.20
2022-08-10T03:47:34.044Z,29.30
2022-08-10T03:49:43.220Z,29.30
2022-08-10T03:51:52.705Z,29.40
2022-08-10T03:54:04.399Z,29.40
2022-08-10T03:56:29.320Z,29.40
2022-08-10T03:58:38.674Z,29.50
2022-08-10T04:00:46.407Z,29.50
2022-08-10T04:02:54.727Z,29.50
2022-08-10T04:05:02.215Z,29.60
2022-08-10T04:07:11.806Z,29.60
2022-08-10T04:09:20.725Z,29.50
2022-08-10T04:11:28.017Z,29.60
2022-08-10T04:13:35.146Z,29.70
2022-08-10T04:15:42.281Z,29.70
2022-08-10T04:18:03.729Z,29.70
2022-08-10T04:20:17.738Z,29.70
2022-08-10T04:22:29.368Z,29.60
2022-08-10T04:24:38.184Z,29.60
2022-08-10T04:26:45.828Z,29.70
2022-08-10T04:28:53.120Z,29.90
2022-08-10T04:31:02.005Z,30.00
2022-08-10T04:33:14.079Z,30.10
2022-08-10T04:35:23.468Z,30.00
2022-08-10T04:37:33.973Z,29.90
2022-08-10T04:39:42.412Z,29.80
2022-08-10T04:41:50.181Z,29.80
2022-08-10T04:43:57.262Z,29.80
2022-08-10T04:46:04.542Z,29.80
2022-08-10T04:48:42.813Z,29.80
2022-08-10T04:50:48.993Z,29.70
2022-08-10T04:52:57.988Z,29.90
2022-08-10T04:55:05.371Z,30.00
2022-08-10T04:57:12.608Z,30.20
2022-08-10T04:59:19.938Z,30.30
2022-08-10T05:01:27.895Z,30.50
2022-08-10T05:04:35.734Z,30.60
2022-08-10T05:06:22.031Z,30.60
2022-08-10T05:08:30.960Z,30.60
2022-08-10T05:10:38.597Z,30.60
2022-08-10T05:12:45.679Z,30.60
2022-08-10T05:14:54.565Z,30.60
2022-08-10T05:17:01.930Z,30.60
2022-08-10T05:19:09.326Z,30.50
2022-08-10T05:21:56.367Z,30.40
2022-08-10T05:23:45.546Z,30.40
2022-08-10T05:25:52.729Z,30.40
2022-08-10T05:28:06.966Z,30.40
2022-08-10T05:30:18.406Z,30.40
2022-08-10T05:32:25.691Z,30.40
2022-08-10T05:34:32.874Z,30.30
2022-08-10T05:36:40.672Z,30.30
2022-08-10T05:38:50.211Z,30.30
2022-08-10T05:40:59.332Z,30.30
2022-08-10T05:43:06.674Z,30.30
2022-08-10T05:45:23.676Z,30.40
2022-08-10T05:48:57.588Z,30.50
2022-08-10T05:49:58.680Z,30.60
2022-08-10T05:52:05.854Z,30.50
2022-08-10T05:54:17.853Z,30.40
2022-08-10T05:56:25.138Z,30.50
2022-08-10T05:58:32.623Z,30.50
2022-08-10T06:00:46.070Z,30.70
2022-08-10T06:03:02.251Z,30.80
2022-08-10T06:05:10.129Z,30.80
2022-08-10T06:07:21.788Z,30.90
2022-08-10T06:09:32.395Z,30.90
2022-08-10T06:12:27.860Z,30.90
2022-08-10T06:14:28.513Z,30.90
2022-08-10T06:16:37.560Z,30.90
2022-08-10T06:18:46.026Z,30.80
2022-08-10T06:20:54.340Z,30.80
2022-08-10T06:23:03.917Z,30.80
2022-08-10T06:25:51.078Z,30.80
2022-08-10T06:27:42.393Z,30.80
2022-08-10T06:29:50.300Z,30.80
2022-08-10T06:31:58.659Z,30.80
2022-08-10T06:34:08.758Z,30.80
2022-08-10T06:36:19.315Z,30.80
2022-08-10T06:38:29.875Z,30.80
2022-08-10T06:40:42.797Z,30.80
2022-08-10T06:42:52.429Z,30.80
2022-08-10T06:45:03.964Z,30.70
2022-08-10T06:47:13.660Z,30.70
2022-08-10T06:49:30.369Z,30.60
2022-08-10T06:51:39.023Z,30.50
2022-08-10T06:53:54.598Z,30.40
2022-08-10T06:56:07.313Z,30.40
2022-08-10T06:58:16.871Z,30.40
2022-08-10T07:00:24.441Z,30.50
2022-08-10T07:02:52.360Z,30.60
2022-08-10T07:05:03.898Z,30.70
2022-08-10T07:07:11.131Z,30.60
2022-08-10T07:09:20.821Z,30.60
2022-08-10T07:11:32.093Z,30.70
2022-08-10T07:14:14.046Z,30.80
2022-08-10T07:16:13.130Z,30.90
2022-08-10T07:18:22.620Z,30.90
2022-08-10T07:20:31.541Z,30.90
2022-08-10T07:23:05.833Z,30.90
2022-08-10T07:25:09.308Z,30.90
2022-08-10T07:27:20.381Z,30.80
2022-08-10T07:29:54.187Z,30.70
2022-08-10T07:32:00.651Z,30.60
2022-08-10T07:34:09.409Z,30.60
2022-08-10T07:36:17.159Z,30.60
2022-08-10T07:38:28.700Z,30.60
2022-08-10T07:40:36.687Z,30.60
2022-08-10T07:42:47.756Z,30.50
2022-08-10T07:44:55.460Z,30.60
2022-08-10T07:47:05.869Z,30.60
2022-08-10T07:49:19.676Z,30.60
2022-08-10T07:51:28.321Z,30.60
2022-08-10T07:53:44.207Z,30.60
2022-08-10T07:56:02.842Z,30.70
2022-08-10T07:58:21.864Z,30.80
2022-08-10T08:00:33.304Z,30.80
2022-08-10T08:02:47.650Z,30.90
2022-08-10T08:04:56.312Z,31.00
2022-08-10T08:07:05.545Z,31.10
2022-08-10T08:09:13.440Z,31.10
2022-08-10T08:11:26.195Z,31.10
2022-08-10T08:13:37.337Z,31.20
2022-08-10T08:16:18.686Z,31.10
2022-08-10T08:18:15.149Z,31.10
2022-08-10T08:20:24.632Z,31.10
2022-08-10T08:24:06.415Z,31.10
2022-08-10T08:25:02.596Z,31.20
2022-08-10T08:27:10.801Z,31.20
2022-08-10T08:29:20.538Z,31.20
2022-08-10T08:31:29.100Z,31.10
2022-08-10T08:33:42.071Z,31.00
2022-08-10T08:35:51.106Z,31.00
2022-08-10T08:38:33.326Z,31.10
2022-08-10T08:40:34.903Z,31.20
2022-08-10T08:43:21.487Z,31.20
2022-08-10T08:45:48.198Z,31.20
2022-08-10T08:48:34.237Z,31.20
2022-08-10T08:50:57.352Z,31.20
2022-08-10T08:53:22.195Z,31.20
2022-08-10T08:56:05.564Z,31.10
2022-08-10T08:58:33.388Z,31.00
2022-08-10T09:00:48.909Z,31.00
2022-08-10T09:03:33.880Z,31.00
2022-08-10T09:05:59.302Z,31.10
2022-08-10T09:08:26.229Z,31.00
2022-08-10T09:10:42.678Z,31.00
2022-08-10T09:12:57.233Z,31.00
2022-08-10T09:15:08.980Z,31.00
2022-08-10T09:17:25.010Z,30.90
2022-08-10T09:19:41.155Z,31.00
2022-08-10T09:22:13.326Z,31.00
2022-08-10T09:24:31.004Z,31.10
2022-08-10T09:26:50.113Z,31.10
2022-08-10T09:29:12.291Z,31.10
2022-08-10T09:31:26.188Z,31.20
2022-08-10T09:36:21.927Z,31.20
2022-08-10T09:36:33.277Z,31.10
2022-08-10T09:38:50.290Z,31.10
2022-08-10T09:41:13.011Z,31.00
2022-08-10T09:43:28.819Z,31.00
2022-08-10T09:45:48.393Z,31.00
2022-08-10T09:48:05.819Z,30.90
2022-08-10T09:50:26.421Z,30.90
2022-08-10T09:52:40.253Z,30.90
2022-08-10T09:54:59.413Z,30.90
2022-08-10T09:57:43.114Z,30.90
2022-08-10T10:00:01.621Z,31.00
2022-08-10T10:02:25.833Z,30.90
2022-08-10T10:04:42.428Z,30.90
2022-08-10T10:06:58.115Z,31.00
2022-08-10T10:09:12.003Z,31.00
2022-08-10T10:11:25.271Z,31.00
2022-08-10T10:14:01.726Z,31.00
2022-08-10T10:16:41.646Z,31.00
2022-08-10T10:18:57.432Z,30.90
2022-08-10T10:21:24.142Z,30.90
2022-08-10T10:24:20.480Z,30.80
2022-08-10T10:26:27.423Z,30.80
2022-08-10T10:31:22.301Z,30.70
2022-08-10T10:33:41.039Z,30.70
2022-08-10T10:35:53.343Z,30.60
2022-08-10T10:38:03.501Z,30.60
2022-08-10T10:40:15.077Z,30.60
2022-08-10T10:42:44.944Z,30.50
2022-08-10T10:45:05.745Z,30.50
2022-08-10T10:47:31.206Z,30.40
2022-08-10T10:49:52.722Z,30.40
2022-08-10T10:52:08.094Z,30.40
2022-08-10T10:54:19.474Z,30.30
2022-08-10T10:56:38.739Z,30.30
2022-08-10T10:58:57.083Z,30.30
2022-08-10T11:01:12.113Z,30.20
2022-08-10T11:03:39.503Z,30.20
2022-08-10T11:05:53.247Z,30.10
2022-08-10T11:10:32.884Z,30.10
2022-08-10T11:12:50.972Z,30.00
2022-08-10T11:15:06.920Z,29.90
2022-08-10T11:17:18.708Z,29.80
2022-08-10T11:20:02.409Z,29.80
2022-08-10T11:22:05.740Z,29.80
2022-08-10T11:24:47.172Z,29.70
2022-08-10T11:26:54.812Z,29.70
2022-08-10T11:29:18.946Z,29.60
2022-08-10T11:31:37.025Z,29.60
2022-08-10T11:34:47.061Z,29.50
2022-08-10T11:36:53.140Z,29.50
2022-08-10T11:39:14.916Z,29.40
2022-08-10T11:42:12.384Z,29.40
2022-08-10T11:43:57.490Z,29.30
2022-08-10T11:46:27.620Z,29.20
2022-08-10T11:48:53.179Z,29.20
2022-08-10T11:51:04.548Z,29.10
2022-08-10T11:53:19.009Z,29.10
2022-08-10T11:55:27.561Z,29.10
2022-08-10T11:57:54.457Z,29.10
2022-08-10T12:00:01.491Z,29.10
2022-08-10T12:02:18.262Z,29.10
2022-08-10T12:04:26.753Z,29.00
2022-08-10T12:06:54.140Z,29.00
2022-08-10T12:10:11.732Z,28.90
2022-08-10T12:11:31.259Z,28.90
2022-08-10T12:14:04.352Z,28.90
2022-08-10T12:16:18.077Z,28.80
2022-08-10T12:18:31.978Z,28.80
2022-08-10T12:20:41.051Z,28.70
2022-08-10T12:22:57.960Z,28.70
2022-08-10T12:25:08.206Z,28.60
2022-08-10T12:27:25.273Z,28.60
2022-08-10T12:29:39.546Z,28.60
2022-08-10T12:31:58.635Z,28.50
2022-08-10T12:34:19.799Z,28.50
2022-08-10T12:36:31.229Z,28.50
2022-08-10T12:39:07.479Z,28.40
2022-08-10T12:41:43.669Z,28.40
2022-08-10T12:44:04.408Z,28.30
2022-08-10T12:46:21.367Z,28.40
2022-08-10T12:48:33.914Z,28.30
2022-08-10T12:50:46.807Z,28.30
2022-08-10T12:53:05.079Z,28.20
2022-08-10T12:55:15.787Z,28.30
2022-08-10T12:57:26.965Z,28.20
2022-08-10T12:59:42.955Z,28.20
2022-08-10T13:02:06.950Z,28.20
2022-08-10T13:04:22.664Z,28.20
2022-08-10T13:06:34.547Z,28.10
2022-08-10T13:08:58.934Z,28.10
2022-08-10T13:12:34.177Z,28.10
2022-08-10T13:13:39.970Z,28.10
2022-08-10T13:15:51.570Z,28.10
2022-08-10T13:18:02.689Z,28.10
2022-08-10T13:20:16.876Z,28.10
2022-08-10T13:22:27.758Z,28.10
2022-08-10T13:24:40.452Z,28.10
2022-08-10T13:27:24.968Z,28.00
2022-08-10T13:29:24.394Z,28.00
2022-08-10T13:32:08.908Z,28.00
2022-08-10T13:34:43.870Z,28.00
2022-08-10T13:36:35.630Z,28.00
2022-08-10T13:38:49.823Z,28.00
2022-08-10T13:40:57.866Z,28.00
2022-08-10T13:43:09.257Z,27.90
2022-08-10T13:45:18.684Z,27.90
2022-08-10T13:47:42.408Z,27.90
2022-08-10T13:50:02.227Z,27.90
2022-08-10T13:52:15.663Z,27.90
2022-08-10T13:54:25.245Z,27.90
2022-08-10T13:56:35.042Z,27.90
2022-08-10T13:58:44.884Z,27.90
2022-08-10T14:00:52.883Z,27.90
2022-08-10T14:03:06.974Z,27.90
2022-08-10T14:05:15.337Z,27.90
2022-08-10T14:07:23.541Z,27.90
2022-08-10T14:09:36.051Z,27.90
2022-08-10T14:11:45.075Z,27.80
2022-08-10T14:13:58.346Z,27.80
2022-08-10T14:16:10.460Z,27.80
2022-08-10T14:18:19.526Z,27.80
2022-08-10T14:20:31.982Z,27.80
2022-08-10T14:22:39.213Z,27.80
2022-08-10T14:24:48.490Z,27.70
2022-08-10T14:27:02.539Z,27.80
2022-08-10T14:29:19.595Z,27.70
2022-08-10T14:31:32.306Z,27.70
2022-08-10T14:33:41.327Z,27.70
2022-08-10T14:36:23.339Z,27.70
2022-08-10T14:38:21.187Z,27.70
2022-08-10T14:40:45.530Z,27.70
2022-08-10T14:42:56.310Z,27.60
2022-08-10T14:45:08.847Z,27.60
2022-08-10T14:47:53.686Z,27.60
2022-08-10T14:49:57.194Z,27.60
2022-08-10T14:52:08.076Z,27.50
2022-08-10T14:54:17.489Z,27.50
2022-08-10T14:56:31.400Z,27.40
2022-08-10T14:59:05.718Z,27.40
2022-08-10T15:01:09.829Z,27.40
2022-08-10T15:04:01.733Z,27.30
2022-08-10T15:05:49.494Z,27.30
2022-08-10T15:07:59.040Z,27.40
2022-08-10T15:10:08.300Z,27.40
2022-08-10T15:12:26.417Z,27.40
2022-08-10T15:14:43.725Z,27.40
2022-08-10T15:16:55.403Z,27.40
2022-08-10T15:20:01.113Z,27.40
2022-08-10T15:21:43.014Z,27.40
2022-08-10T15:24:04.638Z,27.40
2022-08-10T15:26:14.511Z,27.30
2022-08-10T15:28:31.383Z,27.30
2022-08-10T15:30:57.793Z,27.30
2022-08-10T15:34:03.613Z,27.30
2022-08-10T15:36:09.247Z,27.30
2022-08-10T15:38:20.934Z,27.30
2022-08-10T15:40:31.167Z,27.30
2022-08-10T15:42:49.153Z,27.30
2022-08-10T15:44:58.809Z,27.30
2022-08-10T15:47:10.905Z,27.30
2022-08-10T15:49:23.314Z,27.30
2022-08-10T15:51:53.493Z,27.30
2022-08-10T15:54:12.111Z,27.20
2022-08-10T15:56:28.395Z,27.20
2022-08-10T15:58:41.393Z,27.10
2022-08-10T16:00:56.991Z,27.10
2022-08-10T16:03:13.574Z,27.10
2022-08-10T16:05:40.799Z,27.10
2022-08-10T16:07:57.544Z,27.10
2022-08-10T16:10:25.327Z,27.10
2022-08-10T16:12:40.127Z,27.10
2022-08-10T16:14:52.406Z,27.10
2022-08-10T16:17:03.584Z,27.10
2022-08-10T16:19:22.314Z,27.00
2022-08-10T16:21:36.379Z,27.10
2022-08-10T16:23:47.090Z,27.10
2022-08-10T16:26:17.739Z,27.00
2022-08-10T16:28:26.697Z,26.90
2022-08-10T16:30:45.664Z,26.90
2022-08-10T16:32:55.192Z,26.90
2022-08-10T16:35:04.648Z,26.90
2022-08-10T16:37:19.079Z,27.00
2022-08-10T16:39:57.138Z,27.00
2022-08-10T16:42:05.589Z,27.00
2022-08-10T16:44:16.410Z,26.90
2022-08-10T16:46:24.923Z,27.00
2022-08-10T16:48:50.122Z,27.00
2022-08-10T16:50:59.461Z,27.00
2022-08-10T16:53:10.022Z,27.00
2022-08-10T16:55:24.680Z,27.00
2022-08-10T16:57:50.554Z,27.00
2022-08-10T17:00:00.101Z,27.00
2022-08-10T17:02:07.980Z,27.00
2022-08-10T17:04:19.264Z,27.10
2022-08-10T17:06:31.307Z,27.10
2022-08-10T17:08:47.868Z,27.10
2022-08-10T17:10:58.060Z,27.10
2022-08-10T17:13:08.622Z,27.10
2022-08-10T17:15:16.476Z,27.10
2022-08-10T17:17:29.077Z,27.10
2022-08-10T17:19:41.028Z,27.20
2022-08-10T17:21:53.989Z,27.10
2022-08-10T17:24:05.935Z,27.20
2022-08-10T17:26:15.771Z,27.10
2022-08-10T17:28:34.880Z,27.10
2022-08-10T17:30:57.390Z,27.10
2022-08-10T17:33:09.793Z,27.20
2022-08-10T17:35:25.768Z,27.10
2022-08-10T17:37:37.059Z,27.20
2022-08-10T17:39:50.174Z,27.20
2022-08-10T17:41:59.255Z,27.20
2022-08-10T17:44:08.269Z,27.10
2022-08-10T17:46:16.677Z,27.10
2022-08-10T17:48:31.699Z,27.10
2022-08-10T17:50:44.405Z,27.10
2022-08-10T17:52:52.966Z,27.10
2022-08-10T17:55:03.339Z,27.10
2022-08-10T17:57:14.138Z,27.10
2022-08-10T17:59:26.241Z,27.10
2022-08-10T18:01:41.104Z,27.20
2022-08-10T18:04:06.714Z,27.10
2022-08-10T18:06:19.319Z,27.10
2022-08-10T18:08:28.960Z,27.10
2022-08-10T18:10:36.941Z,27.10
2022-08-10T18:12:47.989Z,27.10
2022-08-10T18:14:57.522Z,27.10
2022-08-10T18:17:14.433Z,27.10
2022-08-10T18:19:22.480Z,27.10
2022-08-10T18:21:33.244Z,27.10
2022-08-10T18:23:42.582Z,27.10
2022-08-10T18:26:04.095Z,27.10
2022-08-10T18:28:18.042Z,27.10
2022-08-10T18:30:25.552Z,27.10
2022-08-10T18:32:37.370Z,27.10
2022-08-10T18:34:47.063Z,27.10
2022-08-10T18:36:56.694Z,27.10
2022-08-10T18:39:05.415Z,27.10
2022-08-10T18:41:15.370Z,27.10
2022-08-10T18:44:06.299Z,27.10
2022-08-10T18:45:57.683Z,27.10
2022-08-10T18:48:08.598Z,27.10
2022-08-10T18:50:18.798Z,27.00
2022-08-10T18:52:30.953Z,27.10
2022-08-10T18:54:44.835Z,27.10
2022-08-10T18:57:00.428Z,27.00
2022-08-10T18:59:23.635Z,27.00
2022-08-10T19:01:58.197Z,27.00
2022-08-10T19:04:34.775Z,27.00
2022-08-10T19:07:17.686Z,27.00
2022-08-10T19:09:36.718Z,27.00
2022-08-10T19:12:30.119Z,27.00
2022-08-10T19:14:40.425Z,27.00
2022-08-10T19:16:56.309Z,26.90
2022-08-10T19:19:22.137Z,26.90
2022-08-10T19:21:35.346Z,26.90
2022-08-10T19:23:51.391Z,26.90
2022-08-10T19:26:39.359Z,26.90
2022-08-10T19:28:47.798Z,26.90
2022-08-10T19:30:59.111Z,26.90
2022-08-10T19:33:28.208Z,26.90
2022-08-10T19:36:03.989Z,26.90
2022-08-10T19:38:18.310Z,26.90
2022-08-10T19:40:46.462Z,26.80
2022-08-10T19:43:09.363Z,26.90
2022-08-10T19:45:56.244Z,26.90
2022-08-10T19:48:00.050Z,26.90
2022-08-10T19:50:11.273Z,26.90
2022-08-10T19:52:28.456Z,26.90
2022-08-10T19:54:42.430Z,26.90
2022-08-10T19:57:01.439Z,26.80
2022-08-10T20:00:16.235Z,26.80
2022-08-10T20:01:56.780Z,26.80
2022-08-10T20:04:09.731Z,26.80
2022-08-10T20:06:20.985Z,26.80
2022-08-10T20:08:33.062Z,26.80
2022-08-10T20:10:50.888Z,26.80
2022-08-10T20:13:10.893Z,26.80
2022-08-10T20:15:31.412Z,26.80
2022-08-10T20:17:59.196Z,26.80
2022-08-10T20:20:12.655Z,26.80
2022-08-10T20:22:29.388Z,26.80
2022-08-10T20:24:50.162Z,26.80
2022-08-10T20:27:18.116Z,26.80
2022-08-10T20:29:58.709Z,26.80
2022-08-10T20:32:07.518Z,26.80
2022-08-10T20:34:22.478Z,26.80
2022-08-10T20:36:32.734Z,26.80
2022-08-10T20:38:46.729Z,26.80
2022-08-10T20:41:06.295Z,26.80
2022-08-10T20:43:23.521Z,26.80
2022-08-10T20:45:46.626Z,26.80
2022-08-10T20:48:10.899Z,26.80
2022-08-10T20:50:30.269Z,26.80
2022-08-10T20:52:38.782Z,26.80
2022-08-10T20:54:52.459Z,26.70
2022-08-10T20:57:56.809Z,26.70
2022-08-10T21:00:04.112Z,26.70
2022-08-10T21:02:30.027Z,26.70
2022-08-10T21:04:53.615Z,26.70
2022-08-10T21:08:01.264Z,26.70
2022-08-10T21:10:27.955Z,26.70
2022-08-10T21:13:12.453Z,26.70
2022-08-10T21:15:30.641Z,26.70
2022-08-10T21:18:05.358Z,26.60
2022-08-10T21:22:53.732Z,26.60
2022-08-10T21:25:06.037Z,26.60
2022-08-10T21:27:33.592Z,26.50
2022-08-10T21:29:51.078Z,26.60
2022-08-10T21:32:14.790Z,26.60
2022-08-10T21:34:54.203Z,26.60
2022-08-10T21:37:08.417Z,26.60
2022-08-10T21:39:41.968Z,26.60
2022-08-10T21:42:25.705Z,26.60
2022-08-10T21:45:09.209Z,26.60
2022-08-10T21:48:07.224Z,26.60
2022-08-10T21:50:32.933Z,26.60
2022-08-10T21:53:04.054Z,26.60
2022-08-10T21:55:57.735Z,26.60
2022-08-10T21:58:27.354Z,26.60
2022-08-10T22:00:52.601Z,26.60
2022-08-10T22:03:18.583Z,26.60
2022-08-10T22:05:47.988Z,26.60
2022-08-10T22:08:17.485Z,26.60
2022-08-10T22:10:46.542Z,26.60
2022-08-10T22:13:12.920Z,26.60
2022-08-10T22:15:42.554Z,26.60
2022-08-10T22:18:31.446Z,26.60
2022-08-10T22:20:56.887Z,26.60
2022-08-10T22:23:36.482Z,26.60
2022-08-10T22:26:09.620Z,26.60
2022-08-10T22:28:37.081Z,26.60
2022-08-10T22:31:24.652Z,26.60
2022-08-10T22:31:30.032Z,26.50
2022-08-10T22:34:04.350Z,26.50
2022-08-10T22:36:50.353Z,26.50
2022-08-10T22:40:10.075Z,26.50
2022-08-10T22:42:16.494Z,26.50
2022-08-10T22:44:41.850Z,26.50
2022-08-10T22:47:07.713Z,26.50
2022-08-10T22:49:13.463Z,26.50
2022-08-10T22:51:24.488Z,26.50
2022-08-10T22:53:50.863Z,26.50
2022-08-10T22:56:17.351Z,26.50
2022-08-10T22:58:43.477Z,26.40
2022-08-10T23:01:04.532Z,26.40
2022-08-10T23:03:24.187Z,26.40
2022-08-10T23:05:37.079Z,26.40
2022-08-10T23:07:52.295Z,26.40
2022-08-10T23:10:04.853Z,26.40
2022-08-10T23:12:17.724Z,26.40
2022-08-10T23:14:34.523Z,26.40
2022-08-10T23:17:03.366Z,26.40
2022-08-10T23:19:14.693Z,26.50
2022-08-10T23:21:23.918Z,26.40
2022-08-10T23:23:32.586Z,26.50
2022-08-10T23:25:56.616Z,26.50
2022-08-10T23:28:12.752Z,26.50
2022-08-10T23:30:20.911Z,26.50
2022-08-10T23:32:34.030Z,26.50
2022-08-10T23:34:46.329Z,26.50
2022-08-10T23:37:14.257Z,26.50
2022-08-10T23:39:26.892Z,26.50
2022-08-10T23:41:36.404Z,26.50
2022-08-10T23:44:03.782Z,26.50
2022-08-10T23:46:12.472Z,26.50
2022-08-10T23:48:23.670Z,26.50
2022-08-10T23:50:32.931Z,26.50
2022-08-10T23:52:43.073Z,26.50
2022-08-10T23:54:53.078Z,26.60
2022-08-10T23:57:03.894Z,26.60
2022-08-10T23:59:16.654Z,26.60
